Time;durP1;ratioP1;P1;durP2;ratioP2;P2;SDS_P1;SDS_P2;PMS_P1;PMS_P2;Temp;Humidity;BMP_temperature;BMP_pressure;BME280_temperature;BME280_humidity;BME280_pressure;Samples;Min_cycle;Max_cycle;Signal;HPM_P1;HPM_P2
2022/12/09 05:02:18;;;;;;;16.10;13.00;;;-0.40;99.90;;;;;;6263611;22;20510;-65
2022/12/09 05:04:45;;;;;;;13.97;12.57;;;-0.40;99.90;;;;;;6279176;22;20742;-67
2022/12/09 05:07:12;;;;;;;14.40;13.00;;;-0.40;99.90;;;;;;6280049;22;20480;-67
2022/12/09 05:09:39;;;;;;;14.17;12.87;;;-0.40;99.90;;;;;;6279554;22;20463;-67
2022/12/09 05:12:07;;;;;;;14.40;12.97;;;-0.40;99.90;;;;;;6257774;22;20481;-66
2022/12/09 05:14:34;;;;;;;16.80;14.37;;;-0.40;99.90;;;;;;6249212;23;20395;-67
2022/12/09 05:17:02;;;;;;;15.00;13.43;;;-0.50;99.90;;;;;;6249778;23;20464;-66
2022/12/09 05:19:30;;;;;;;15.50;13.90;;;-0.50;99.90;;;;;;6249527;23;20410;-65
2022/12/09 05:21:57;;;;;;;15.17;13.67;;;-0.50;99.90;;;;;;6248887;22;20744;-67
2022/12/09 05:24:23;;;;;;;15.10;13.37;;;-0.50;99.90;;;;;;6248864;23;20713;-67
2022/12/09 05:26:51;;;;;;;14.93;13.00;;;-0.50;99.90;;;;;;6248751;23;20745;-66
2022/12/09 05:29:17;;;;;;;14.93;13.43;;;-0.50;99.90;;;;;;6248963;23;20453;-67
2022/12/09 05:31:44;;;;;;;14.70;13.30;;;-0.50;99.90;;;;;;6248564;22;20430;-67
2022/12/09 05:34:10;;;;;;;13.50;12.20;;;-0.50;99.90;;;;;;6248827;23;20411;-67
2022/12/09 05:36:39;;;;;;;14.33;12.80;;;-0.40;99.90;;;;;;6248464;23;20407;-66
2022/12/09 05:39:05;;;;;;;14.10;12.80;;;-0.40;99.90;;;;;;6248626;23;20478;-66
2022/12/09 05:41:32;;;;;;;14.97;11.50;;;-0.40;99.90;;;;;;6248075;22;20966;-68
2022/12/09 05:43:58;;;;;;;14.70;13.30;;;-0.40;99.90;;;;;;6248040;23;20748;-66
2022/12/09 05:46:25;;;;;;;13.53;12.23;;;-0.30;99.90;;;;;;6248455;23;20430;-65
2022/12/09 05:48:52;;;;;;;15.33;13.90;;;-0.30;99.90;;;;;;6248647;23;20543;-66
2022/12/09 05:51:23;;;;;;;14.73;13.23;;;-0.30;99.90;;;;;;6248177;22;20462;-67
2022/12/09 05:53:51;;;;;;;14.47;12.80;;;-0.40;99.90;;;;;;6248089;23;20864;-67
2022/12/09 05:56:20;;;;;;;14.77;12.97;;;-0.40;99.90;;;;;;6248016;23;20953;-66
2022/12/09 05:58:47;;;;;;;13.73;12.43;;;-0.40;99.90;;;;;;6248283;23;20465;-66
2022/12/09 06:01:15;;;;;;;14.73;13.23;;;-0.40;99.90;;;;;;6248004;22;20489;-67
2022/12/09 06:03:42;;;;;;;13.03;11.77;;;-0.40;99.90;;;;;;6248452;23;20410;-66
2022/12/09 06:06:10;;;;;;;12.80;11.50;;;-0.40;99.90;;;;;;6248618;23;20434;-67
2022/12/09 06:08:38;;;;;;;13.80;12.50;;;-0.40;99.90;;;;;;6248553;23;20415;-66
2022/12/09 06:11:10;;;;;;;15.10;12.60;;;-0.40;99.90;;;;;;6248632;22;20434;-66
2022/12/09 06:13:37;;;;;;;14.63;13.13;;;-0.40;99.90;;;;;;6248698;23;20396;-66
2022/12/09 06:16:05;;;;;;;17.50;13.43;;;-0.40;99.90;;;;;;6248882;23;20712;-66
2022/12/09 06:18:32;;;;;;;13.67;12.03;;;-0.40;99.90;;;;;;6251267;23;20411;-67
2022/12/09 06:20:59;;;;;;;14.27;12.77;;;-0.40;99.90;;;;;;6248353;22;20983;-65
2022/12/09 06:23:26;;;;;;;14.13;11.70;;;-0.40;99.90;;;;;;6248657;23;20521;-67
2022/12/09 06:25:52;;;;;;;14.63;12.80;;;-0.40;99.90;;;;;;6248582;23;20411;-66
2022/12/09 06:28:20;;;;;;;14.57;13.17;;;-0.40;99.90;;;;;;6252842;23;20411;-66
2022/12/09 06:30:47;;;;;;;14.33;12.93;;;-0.40;99.90;;;;;;6256678;22;20435;-67
2022/12/09 06:33:13;;;;;;;13.63;12.30;;;-0.40;99.90;;;;;;6254260;23;20446;-66
2022/12/09 06:35:40;;;;;;;13.93;12.53;;;-0.30;99.90;;;;;;6251405;23;20411;-67
2022/12/09 06:38:07;;;;;;;14.63;13.13;;;-0.40;99.90;;;;;;6249985;23;20413;-66
2022/12/09 06:40:33;;;;;;;16.13;12.90;;;-0.40;99.90;;;;;;6248554;22;20435;-67
2022/12/09 06:43:00;;;;;;;15.53;13.13;;;-0.40;99.90;;;;;;6248353;23;20563;-66
2022/12/09 06:45:28;;;;;;;16.27;12.20;;;-0.40;99.90;;;;;;6250701;23;20469;-67
2022/12/09 06:47:55;;;;;;;13.90;12.50;;;-0.40;99.90;;;;;;6251682;23;20441;-66
2022/12/09 06:50:21;;;;;;;14.67;13.10;;;-0.30;99.90;;;;;;6247349;22;20411;-66
2022/12/09 06:52:48;;;;;;;15.60;13.40;;;-0.30;99.90;;;;;;6247289;23;20899;-66
2022/12/09 06:55:14;;;;;;;15.17;12.87;;;-0.30;99.90;;;;;;6247996;23;20460;-66
2022/12/09 06:57:41;;;;;;;15.37;12.93;;;-0.30;99.90;;;;;;6247655;23;20440;-65
2022/12/09 07:00:09;;;;;;;15.70;14.10;;;-0.20;99.90;;;;;;6247626;23;20411;-66
2022/12/09 07:02:37;;;;;;;16.20;12.90;;;-0.20;99.90;;;;;;6247392;23;20774;-67
2022/12/09 07:05:04;;;;;;;14.43;12.77;;;-0.20;99.90;;;;;;6248016;23;20528;-66
2022/12/09 07:07:31;;;;;;;15.20;13.70;;;-0.20;99.90;;;;;;6247743;23;20435;-66
2022/12/09 07:09:57;;;;;;;14.33;12.93;;;-0.20;99.90;;;;;;6247961;23;20461;-66
2022/12/09 07:12:24;;;;;;;14.90;12.80;;;-0.10;99.90;;;;;;6247700;22;20435;-66
2022/12/09 07:14:51;;;;;;;15.23;13.60;;;-0.10;99.90;;;;;;6248002;23;20415;-66
2022/12/09 07:17:21;;;;;;;14.50;13.10;;;-0.10;99.90;;;;;;6247929;23;20457;-66
2022/12/09 07:19:49;;;;;;;16.30;14.60;;;0.00;99.90;;;;;;6247915;23;20415;-66
2022/12/09 07:22:16;;;;;;;16.60;14.80;;;0.10;99.90;;;;;;6247012;22;20951;-64
2022/12/09 07:24:43;;;;;;;16.23;14.60;;;0.20;99.90;;;;;;6247457;23;20422;-65
2022/12/09 07:27:14;;;;;;;18.73;16.93;;;0.50;99.90;;;;;;6247743;23;20430;-65
2022/12/09 07:29:41;;;;;;;16.83;15.17;;;0.70;99.90;;;;;;6247563;23;20767;-66
2022/12/09 07:32:08;;;;;;;16.40;14.77;;;1.00;99.90;;;;;;6246939;22;20435;-66
2022/12/09 07:34:35;;;;;;;17.27;15.10;;;1.10;99.90;;;;;;6247491;23;20434;-66
2022/12/09 07:37:03;;;;;;;17.33;15.63;;;1.10;99.90;;;;;;6248185;23;20457;-66
2022/12/09 07:39:30;;;;;;;17.00;15.40;;;1.20;99.90;;;;;;6247389;23;20779;-66
2022/12/09 07:41:57;;;;;;;16.73;15.03;;;1.10;99.90;;;;;;6247937;22;20437;-66
2022/12/09 07:44:26;;;;;;;17.47;15.67;;;1.00;99.90;;;;;;6247726;23;20415;-67
2022/12/09 07:46:53;;;;;;;17.60;14.27;;;0.90;99.90;;;;;;6247498;23;20440;-66
2022/12/09 07:49:20;;;;;;;16.90;15.20;;;1.00;99.90;;;;;;6247661;23;20414;-68
2022/12/09 07:51:47;;;;;;;16.53;14.80;;;1.00;99.90;;;;;;6247561;22;20763;-66
2022/12/09 07:54:17;;;;;;;15.17;13.67;;;1.00;99.90;;;;;;6247580;23;20418;-66
2022/12/09 07:56:44;;;;;;;16.03;14.50;;;1.00;99.90;;;;;;6247786;23;20399;-68
2022/12/09 07:59:13;;;;;;;18.67;15.67;;;1.00;99.90;;;;;;6247130;23;20965;-66
2022/12/09 08:01:39;;;;;;;17.23;15.53;;;1.10;99.90;;;;;;6220859;23;20823;-67
2022/12/09 08:04:07;;;;;;;17.70;15.90;;;1.20;99.90;;;;;;6251230;23;20438;-67
2022/12/09 08:06:35;;;;;;;16.13;14.43;;;1.20;99.90;;;;;;6248108;23;20411;-67
2022/12/09 08:09:04;;;;;;;16.37;14.67;;;1.20;99.90;;;;;;6247135;23;20464;-66
2022/12/09 08:11:33;;;;;;;17.30;15.50;;;1.20;99.90;;;;;;6247159;22;20437;-67
2022/12/09 08:14:02;;;;;;;16.70;15.10;;;1.30;99.90;;;;;;6246816;23;20968;-66
2022/12/09 08:16:28;;;;;;;17.93;15.37;;;1.30;99.90;;;;;;6246985;23;20442;-66
2022/12/09 08:18:55;;;;;;;21.37;15.77;;;1.30;99.90;;;;;;6247353;23;20411;-67
2022/12/09 08:21:24;;;;;;;24.20;16.47;;;1.40;99.90;;;;;;6247896;22;20434;-66
2022/12/09 08:23:51;;;;;;;17.63;15.80;;;1.30;99.90;;;;;;6246831;23;20461;-66
2022/12/09 08:26:20;;;;;;;19.60;14.73;;;1.40;99.90;;;;;;6246601;23;20953;-66
2022/12/09 08:28:49;;;;;;;14.23;12.83;;;1.40;99.90;;;;;;6246816;23;20435;-66
2022/12/09 08:31:18;;;;;;;16.77;14.93;;;1.40;99.90;;;;;;6246722;22;20431;-66
2022/12/09 08:33:46;;;;;;;15.40;13.90;;;1.40;99.90;;;;;;6246850;23;20415;-67
2022/12/09 08:36:14;;;;;;;16.17;14.57;;;1.50;99.90;;;;;;6247024;23;20411;-67
2022/12/09 08:38:41;;;;;;;17.47;14.70;;;1.50;99.90;;;;;;6247141;23;20457;-66
2022/12/09 08:41:10;;;;;;;15.70;14.07;;;1.40;99.90;;;;;;6249203;22;20480;-66
2022/12/09 08:43:37;;;;;;;17.97;14.07;;;1.50;99.90;;;;;;6249054;23;20798;-66
2022/12/09 08:46:05;;;;;;;17.90;14.40;;;1.50;99.90;;;;;;6249534;23;20411;-66
2022/12/09 08:48:33;;;;;;;18.33;14.60;;;1.50;99.90;;;;;;6248902;23;20431;-66
2022/12/09 08:51:00;;;;;;;15.20;13.70;;;1.60;99.90;;;;;;6248783;22;20434;-66
2022/12/09 08:53:26;;;;;;;21.10;13.30;;;1.70;99.90;;;;;;6249368;23;20461;-65
2022/12/09 08:55:53;;;;;;;19.30;15.50;;;1.80;99.90;;;;;;6249364;23;20415;-65
2022/12/09 08:58:20;;;;;;;16.57;14.77;;;1.90;99.90;;;;;;6249130;23;20406;-65
2022/12/09 09:00:46;;;;;;;16.33;14.63;;;1.90;99.90;;;;;;6248499;22;20439;-65
2022/12/09 09:03:14;;;;;;;15.90;14.30;;;2.00;99.90;;;;;;6247882;23;20899;-65
2022/12/09 09:05:41;;;;;;;16.10;14.53;;;2.00;99.90;;;;;;6248408;23;20411;-65
2022/12/09 09:08:08;;;;;;;16.50;14.10;;;2.10;99.90;;;;;;6248381;23;20461;-67
2022/12/09 09:10:36;;;;;;;16.53;14.93;;;2.10;99.90;;;;;;6248007;22;20943;-68
2022/12/09 09:13:03;;;;;;;23.73;20.90;;;2.10;99.90;;;;;;6248240;23;20965;-68
2022/12/09 09:15:30;;;;;;;21.87;18.60;;;2.10;99.90;;;;;;6248625;23;20732;-68
2022/12/09 09:17:56;;;;;;;17.00;15.30;;;2.10;99.90;;;;;;6248801;23;20407;-68
2022/12/09 09:20:24;;;;;;;18.57;16.57;;;2.00;99.90;;;;;;6249180;22;20411;-69
2022/12/09 09:22:51;;;;;;;17.90;16.03;;;2.00;99.90;;;;;;6249424;23;20410;-69
2022/12/09 09:25:17;;;;;;;19.53;17.20;;;1.90;99.90;;;;;;6248945;23;20411;-68
2022/12/09 09:27:44;;;;;;;18.23;16.27;;;1.90;99.90;;;;;;6249183;23;20461;-68
2022/12/09 09:30:11;;;;;;;18.37;15.13;;;1.90;99.90;;;;;;6249132;23;20410;-69
2022/12/09 09:32:38;;;;;;;18.13;15.90;;;1.90;99.90;;;;;;6248910;23;20410;-69
2022/12/09 09:35:05;;;;;;;16.70;14.97;;;1.90;99.90;;;;;;6248663;23;20846;-68
2022/12/09 09:37:33;;;;;;;17.03;15.33;;;2.00;99.90;;;;;;6248573;23;20472;-68
2022/12/09 09:39:59;;;;;;;16.77;15.03;;;2.10;99.90;;;;;;6248621;23;20415;-68
2022/12/09 09:42:33;;;;;;;16.73;15.00;;;2.20;99.90;;;;;;6248101;22;20488;-69
2022/12/09 09:45:04;;;;;;;17.03;15.30;;;2.30;99.90;;;;;;6248733;23;20394;-69
2022/12/09 09:47:36;;;;;;;18.23;15.33;;;2.30;99.90;;;;;;6248147;23;20423;-69
2022/12/09 09:50:07;;;;;;;17.27;15.57;;;2.40;99.90;;;;;;6247977;23;20395;-68
2022/12/09 09:52:38;;;;;;;16.73;14.50;;;2.40;99.90;;;;;;6248278;22;20438;-67
2022/12/09 09:55:13;;;;;;;16.80;15.10;;;2.50;99.90;;;;;;6248342;23;20411;-68
2022/12/09 09:57:45;;;;;;;15.47;13.97;;;2.50;99.90;;;;;;6248275;23;20446;-68
2022/12/09 10:00:20;;;;;;;18.53;16.10;;;2.50;99.90;;;;;;6248320;23;20396;-69
2022/12/09 10:02:58;;;;;;;17.13;15.30;;;2.50;99.90;;;;;;6249206;23;20461;-69
2022/12/09 10:05:31;;;;;;;16.93;15.23;;;2.50;99.90;;;;;;6248281;23;20395;-69
2022/12/09 10:08:13;;;;;;;20.20;14.90;;;2.60;99.90;;;;;;6247662;23;20941;-69
2022/12/09 10:10:46;;;;;;;19.50;16.70;;;2.50;99.90;;;;;;6248820;22;20435;-69
2022/12/09 10:13:29;;;;;;;18.50;16.60;;;2.40;99.90;;;;;;6248048;23;20396;-69
2022/12/09 10:16:08;;;;;;;20.87;17.00;;;2.50;99.90;;;;;;6247805;23;20868;-69
2022/12/09 10:18:41;;;;;;;18.27;16.10;;;2.50;99.90;;;;;;6247979;23;20449;-70
2022/12/09 10:21:16;;;;;;;18.33;16.40;;;2.60;99.90;;;;;;6248077;22;20431;-69
2022/12/09 10:23:45;;;;;;;25.03;17.17;;;2.60;99.90;;;;;;6248104;23;20426;-70
2022/12/09 10:26:17;;;;;;;19.80;16.97;;;2.60;99.90;;;;;;6248055;23;20411;-69
2022/12/09 10:28:48;;;;;;;18.17;16.20;;;2.70;99.90;;;;;;6247906;23;20419;-69
2022/12/09 10:31:16;;;;;;;19.13;17.23;;;2.70;99.90;;;;;;6247629;22;20943;-68
2022/12/09 10:33:42;;;;;;;17.40;15.80;;;2.70;99.90;;;;;;6247878;23;20410;-68
2022/12/09 10:36:22;;;;;;;18.70;16.30;;;2.80;99.90;;;;;;6247669;23;20891;-68
2022/12/09 10:38:50;;;;;;;18.83;15.70;;;2.90;99.90;;;;;;6247819;23;20441;-69
2022/12/09 10:44:21;;;;;;;18.87;17.03;;;3.00;99.90;;;;;;6245897;23;20913;-69
2022/12/09 10:46:49;;;;;;;19.87;17.10;;;2.90;99.90;;;;;;6247659;23;20411;-70
2022/12/09 10:49:21;;;;;;;20.20;18.23;;;2.90;99.90;;;;;;6247486;23;20489;-68
2022/12/09 10:51:50;;;;;;;20.10;17.87;;;2.90;99.90;;;;;;6247487;22;20430;-69
2022/12/09 10:54:29;;;;;;;20.83;18.60;;;2.80;99.90;;;;;;6246966;23;20441;-69
2022/12/09 10:57:23;;;;;;;21.03;18.93;;;2.80;99.90;;;;;;6257635;23;20414;-70
2022/12/09 11:00:00;;;;;;;22.30;17.80;;;2.90;99.90;;;;;;6247654;23;20769;-69
2022/12/09 11:02:27;;;;;;;21.67;19.33;;;2.80;99.90;;;;;;6247074;22;20438;-68
2022/12/09 11:04:54;;;;;;;22.40;19.50;;;2.80;99.90;;;;;;6247390;23;20395;-68
2022/12/09 11:07:24;;;;;;;20.50;18.40;;;2.90;99.90;;;;;;6246878;23;20918;-69
2022/12/09 11:10:06;;;;;;;20.73;18.50;;;2.90;99.90;;;;;;6247058;23;20473;-69
2022/12/09 11:12:38;;;;;;;23.70;19.40;;;2.90;99.90;;;;;;6247363;22;20492;-70
2022/12/09 11:15:21;;;;;;;20.83;18.83;;;3.00;99.90;;;;;;6247302;23;20722;-69
2022/12/09 11:17:56;;;;;;;23.33;20.33;;;3.00;99.90;;;;;;6246986;23;20849;-69
2022/12/09 11:20:26;;;;;;;24.37;19.60;;;3.00;99.90;;;;;;6248314;22;20401;-69
2022/12/09 11:23:00;;;;;;;28.80;19.43;;;2.90;99.90;;;;;;6247701;23;20899;-66
2022/12/09 11:25:30;;;;;;;20.60;18.60;;;3.00;99.90;;;;;;6247708;23;20394;-67
2022/12/09 11:27:59;;;;;;;21.83;19.53;;;3.00;99.90;;;;;;6248074;23;20439;-66
2022/12/09 11:30:28;;;;;;;22.13;19.60;;;3.00;99.90;;;;;;6247233;22;20441;-67
2022/12/09 11:32:58;;;;;;;23.40;20.73;;;3.00;99.90;;;;;;6247269;23;20417;-67
2022/12/09 11:35:30;;;;;;;21.27;19.03;;;3.10;99.90;;;;;;6247260;23;20395;-66
2022/12/09 11:37:58;;;;;;;21.80;19.60;;;3.10;99.90;;;;;;6247274;23;20445;-66
2022/12/09 11:40:28;;;;;;;22.07;18.17;;;3.10;99.90;;;;;;6248807;22;20415;-66
2022/12/09 11:42:57;;;;;;;20.20;17.87;;;3.20;99.90;;;;;;6247611;23;20498;-67
2022/12/09 11:45:29;;;;;;;20.60;18.33;;;3.20;99.90;;;;;;6247197;23;20485;-67
2022/12/09 11:48:04;;;;;;;21.60;19.40;;;3.30;99.90;;;;;;6246969;23;20450;-66
2022/12/09 11:50:33;;;;;;;21.83;19.50;;;3.40;99.90;;;;;;6246951;22;20863;-64
2022/12/09 11:53:20;;;;;;;22.00;19.70;;;3.50;99.90;;;;;;6246816;23;20402;-65
2022/12/09 11:55:51;;;;;;;21.50;19.40;;;3.60;99.90;;;;;;6246676;23;20391;-65
2022/12/09 11:58:25;;;;;;;20.43;18.53;;;3.60;99.90;;;;;;6246462;23;20445;-66
2022/12/09 12:00:58;;;;;;;21.37;18.93;;;3.60;99.90;;;;;;6246431;22;20496;-65
2022/12/09 12:03:31;;;;;;;21.97;19.67;;;3.70;99.90;;;;;;6246782;23;20776;-65
2022/12/09 12:06:02;;;;;;;20.27;18.17;;;3.70;99.90;;;;;;6246786;23;20395;-66
2022/12/09 12:08:36;;;;;;;20.17;18.13;;;3.70;99.90;;;;;;6249173;23;20423;-66
2022/12/09 12:11:07;;;;;;;20.73;18.43;;;3.80;99.90;;;;;;6251549;22;20429;-65
2022/12/09 12:13:39;;;;;;;19.83;17.67;;;3.80;99.90;;;;;;6246516;23;20402;-65
2022/12/09 12:16:10;;;;;;;21.10;19.00;;;3.80;99.90;;;;;;6246606;23;20400;-65
2022/12/09 12:18:41;;;;;;;19.73;17.63;;;3.90;99.90;;;;;;6246702;23;20775;-64
2022/12/09 12:21:24;;;;;;;21.40;19.20;;;3.90;99.90;;;;;;6246375;22;20434;-65
2022/12/09 12:24:13;;;;;;;22.30;20.03;;;3.70;99.90;;;;;;6246224;23;20759;-65
2022/12/09 12:26:45;;;;;;;23.47;19.90;;;3.70;99.90;;;;;;6246937;23;20402;-65
2022/12/09 12:29:23;;;;;;;21.70;19.37;;;3.60;99.90;;;;;;6246719;23;20462;-65
2022/12/09 12:32:06;;;;;;;21.90;19.60;;;3.60;99.90;;;;;;6246275;22;20437;-65
2022/12/09 12:34:44;;;;;;;40.97;28.60;;;3.60;99.90;;;;;;6247801;23;20710;-65
2022/12/09 12:37:28;;;;;;;22.40;20.20;;;3.80;99.90;;;;;;6247244;23;20425;-65
2022/12/09 12:40:04;;;;;;;23.10;20.60;;;4.00;99.90;;;;;;6246959;23;20391;-65
2022/12/09 12:42:39;;;;;;;21.50;19.50;;;4.20;99.90;;;;;;6246700;22;20430;-65
2022/12/09 12:48:03;;;;;;;24.50;20.70;;;4.40;99.90;;;;;;6246931;23;20382;-65
2022/12/09 12:50:56;;;;;;;23.47;21.17;;;4.30;99.90;;;;;;6246665;22;20486;-65
2022/12/09 12:53:35;;;;;;;22.87;20.57;;;4.10;99.90;;;;;;6246708;23;20430;-65
2022/12/09 12:56:06;;;;;;;23.40;20.90;;;3.90;99.90;;;;;;6246799;23;20756;-66
2022/12/09 12:58:45;;;;;;;25.47;22.00;;;3.80;99.90;;;;;;6246326;23;20939;-65
2022/12/09 13:01:24;;;;;;;22.33;19.93;;;3.70;99.90;;;;;;6245982;22;20521;-65
2022/12/09 13:03:57;;;;;;;23.63;21.27;;;3.70;99.90;;;;;;6247551;23;20402;-66
2022/12/09 13:06:36;;;;;;;26.60;22.07;;;3.70;99.90;;;;;;6246974;23;20457;-65
2022/12/09 13:09:11;;;;;;;24.73;22.10;;;3.70;99.90;;;;;;6246667;23;20472;-65
2022/12/09 13:11:50;;;;;;;28.10;22.00;;;3.80;99.90;;;;;;6246384;22;20434;-65
2022/12/09 13:14:21;;;;;;;24.57;21.97;;;3.80;99.90;;;;;;6246697;23;20409;-65
2022/12/09 13:16:51;;;;;;;26.37;23.50;;;3.80;99.90;;;;;;6246866;23;20396;-64
2022/12/09 13:19:21;;;;;;;24.20;21.80;;;3.80;99.90;;;;;;6246547;23;20407;-65
2022/12/09 13:21:48;;;;;;;26.80;21.37;;;3.80;99.90;;;;;;6245965;22;20931;-65
2022/12/09 13:24:25;;;;;;;24.07;20.93;;;3.80;99.90;;;;;;6246337;23;20410;-65
2022/12/09 13:26:59;;;;;;;24.23;21.40;;;3.90;99.90;;;;;;6248165;23;20395;-66
2022/12/09 13:29:34;;;;;;;24.67;22.03;;;4.00;99.90;;;;;;6248105;23;20423;-65
2022/12/09 13:32:16;;;;;;;25.87;22.80;;;4.10;99.90;;;;;;6248435;22;20534;-65
2022/12/09 13:34:50;;;;;;;26.20;22.53;;;4.10;99.90;;;;;;6248474;23;20395;-65
2022/12/09 13:37:32;;;;;;;24.00;21.50;;;4.20;99.90;;;;;;6248069;23;20957;-65
2022/12/09 13:39:59;;;;;;;25.90;21.63;;;4.20;99.90;;;;;;6247874;23;20727;-65
2022/12/09 13:45:32;;;;;;;25.17;21.13;;;4.20;99.90;;;;;;6248449;23;20402;-65
2022/12/09 13:48:05;;;;;;;23.80;21.30;;;4.10;99.90;;;;;;6248382;23;20768;-65
2022/12/09 13:50:38;;;;;;;28.93;22.20;;;4.10;99.90;;;;;;6248389;22;20387;-65
2022/12/09 13:53:20;;;;;;;27.37;23.83;;;4.00;99.90;;;;;;6248205;23;20482;-64
2022/12/09 13:55:50;;;;;;;25.33;22.60;;;4.00;99.90;;;;;;6248095;23;20391;-65
2022/12/09 13:58:30;;;;;;;26.60;23.73;;;3.90;99.90;;;;;;6248006;23;20407;-65
2022/12/09 14:01:06;;;;;;;24.07;21.47;;;3.90;99.90;;;;;;6247929;22;20438;-65
2022/12/09 14:03:45;;;;;;;23.87;21.27;;;3.90;99.90;;;;;;6249073;23;20394;-65
2022/12/09 14:06:20;;;;;;;26.63;23.80;;;4.00;99.90;;;;;;6248163;23;20401;-66
2022/12/09 14:08:50;;;;;;;28.97;23.87;;;4.00;99.90;;;;;;6247572;23;20477;-66
2022/12/09 14:11:40;;;;;;;31.00;24.87;;;4.00;99.90;;;;;;6248443;22;20760;-65
2022/12/09 14:14:55;;;;;;;27.90;24.27;;;4.00;99.90;;;;;;6247891;23;20415;-66
2022/12/09 14:18:00;;;;;;;27.07;24.10;;;3.90;99.90;;;;;;6221529;23;20411;-65
2022/12/09 14:20:35;;;;;;;30.13;25.67;;;3.90;99.90;;;;;;6248953;22;20383;-66
2022/12/09 14:23:17;;;;;;;28.50;25.10;;;3.90;99.90;;;;;;6248003;23;20494;-66
2022/12/09 14:26:01;;;;;;;28.43;24.87;;;3.80;99.90;;;;;;6249282;23;20519;-66
2022/12/09 14:28:58;;;;;;;29.07;25.90;;;3.80;99.90;;;;;;6248230;23;20395;-66
2022/12/09 14:32:00;;;;;;;29.43;25.83;;;3.80;99.90;;;;;;6248564;22;20481;-66
2022/12/09 14:34:31;;;;;;;31.00;27.30;;;3.80;99.90;;;;;;6248003;23;20394;-66
2022/12/09 14:37:11;;;;;;;32.07;27.03;;;3.80;99.90;;;;;;6247509;23;20395;-66
2022/12/09 14:39:45;;;;;;;31.27;26.83;;;3.80;99.90;;;;;;6247463;23;20918;-66
2022/12/09 14:42:24;;;;;;;30.00;26.10;;;3.80;99.90;;;;;;6247617;22;20475;-65
2022/12/09 14:44:59;;;;;;;29.80;26.63;;;3.80;99.90;;;;;;6249039;23;20400;-66
2022/12/09 14:47:28;;;;;;;29.17;25.93;;;3.80;99.90;;;;;;6247902;23;20918;-66
2022/12/09 14:50:04;;;;;;;30.43;27.07;;;3.80;99.90;;;;;;6247884;23;20435;-66
2022/12/09 14:52:33;;;;;;;36.93;30.00;;;3.80;99.90;;;;;;6247960;22;20430;-65
2022/12/09 14:55:02;;;;;;;37.40;28.93;;;3.70;99.90;;;;;;6249325;23;20785;-66
2022/12/09 14:57:34;;;;;;;41.23;30.37;;;3.70;99.90;;;;;;6247491;23;20934;-65
2022/12/09 15:00:00;;;;;;;39.40;30.13;;;3.60;99.90;;;;;;6247704;23;20391;-65
2022/12/09 15:02:29;;;;;;;42.23;32.00;;;3.50;99.90;;;;;;6246955;22;20446;-66
2022/12/09 15:04:56;;;;;;;42.17;33.40;;;3.50;99.90;;;;;;6247441;23;20498;-65
2022/12/09 15:07:26;;;;;;;41.97;33.00;;;3.40;99.90;;;;;;6247516;23;20435;-65
2022/12/09 15:09:56;;;;;;;45.20;34.70;;;3.40;99.90;;;;;;6247324;23;20939;-65
2022/12/09 15:12:29;;;;;;;44.27;33.47;;;3.40;99.90;;;;;;6247337;22;20430;-66
2022/12/09 15:14:58;;;;;;;45.10;33.83;;;3.30;99.90;;;;;;6247254;23;20399;-66
2022/12/09 15:17:28;;;;;;;42.40;32.30;;;3.40;99.90;;;;;;6247261;23;20418;-66
2022/12/09 15:19:55;;;;;;;44.37;34.77;;;3.30;99.90;;;;;;6247318;23;20411;-65
2022/12/09 15:22:26;;;;;;;43.50;34.20;;;3.30;99.90;;;;;;6247214;22;20435;-66
2022/12/09 15:24:54;;;;;;;45.63;33.93;;;3.30;99.90;;;;;;6248054;23;20748;-65
2022/12/09 15:27:23;;;;;;;46.13;35.93;;;3.20;99.90;;;;;;6247099;23;20411;-65
2022/12/09 15:29:50;;;;;;;46.13;36.10;;;3.20;99.90;;;;;;6247248;23;20944;-65
2022/12/09 15:32:24;;;;;;;47.60;36.20;;;3.20;99.90;;;;;;6246604;22;20487;-65
2022/12/09 15:34:51;;;;;;;45.70;35.10;;;3.10;99.90;;;;;;6247199;23;20396;-65
2022/12/09 15:37:23;;;;;;;43.43;34.00;;;3.20;99.90;;;;;;6246757;23;20736;-66
2022/12/09 15:39:55;;;;;;;40.53;33.73;;;3.20;99.90;;;;;;6246819;23;20391;-66
2022/12/09 15:42:26;;;;;;;44.73;33.60;;;3.20;99.90;;;;;;6250320;22;20431;-65
2022/12/09 15:44:58;;;;;;;44.57;33.53;;;3.30;99.90;;;;;;6250436;23;20411;-65
2022/12/09 15:47:28;;;;;;;43.57;34.67;;;3.30;99.90;;;;;;6251321;23;20395;-65
2022/12/09 15:49:59;;;;;;;44.97;34.90;;;3.30;99.90;;;;;;6247756;23;20439;-66
2022/12/09 15:52:33;;;;;;;42.30;34.10;;;3.40;99.90;;;;;;6246939;22;20431;-66
2022/12/09 15:55:05;;;;;;;41.03;32.50;;;3.40;99.90;;;;;;6247039;23;20402;-66
2022/12/09 15:57:34;;;;;;;47.00;36.07;;;3.40;99.90;;;;;;6246677;23;20868;-66
2022/12/09 16:00:01;;;;;;;52.33;38.50;;;3.40;99.90;;;;;;6247039;23;20462;-66
2022/12/09 16:02:31;;;;;;;61.13;43.57;;;3.40;99.90;;;;;;6246239;22;20935;-65
2022/12/09 16:05:00;;;;;;;64.93;46.27;;;3.40;99.90;;;;;;6246745;23;20961;-65
2022/12/09 16:07:31;;;;;;;58.87;43.00;;;3.40;99.90;;;;;;6247171;23;20464;-65
2022/12/09 16:10:08;;;;;;;53.83;40.37;;;3.30;99.90;;;;;;6246707;23;20745;-65
2022/12/09 16:12:36;;;;;;;50.27;37.77;;;3.40;99.90;;;;;;6246915;22;20504;-66
2022/12/09 16:15:03;;;;;;;47.00;36.00;;;3.40;99.90;;;;;;6246313;23;20895;-65
2022/12/09 16:17:33;;;;;;;41.70;33.07;;;3.40;99.90;;;;;;6246941;23;20461;-65
2022/12/09 16:20:21;;;;;;;44.13;32.73;;;3.50;99.90;;;;;;6246476;23;20983;-66
2022/12/09 16:22:49;;;;;;;41.83;33.60;;;3.50;99.90;;;;;;6247131;23;20429;-65
2022/12/09 16:25:21;;;;;;;37.80;32.17;;;3.50;99.90;;;;;;6247514;23;20410;-65
2022/12/09 16:27:51;;;;;;;42.90;33.03;;;3.50;99.90;;;;;;6246988;23;20403;-65
2022/12/09 16:30:23;;;;;;;42.80;34.60;;;3.50;99.90;;;;;;6247183;23;20435;-65
2022/12/09 16:32:51;;;;;;;42.70;33.87;;;3.50;99.90;;;;;;6251824;23;20403;-64
2022/12/09 16:35:21;;;;;;;41.53;34.00;;;3.50;99.90;;;;;;6247118;23;20411;-64
2022/12/09 16:38:15;;;;;;;37.43;31.00;;;3.50;99.90;;;;;;6247045;23;20414;-65
2022/12/09 16:41:18;;;;;;;41.77;32.20;;;3.60;99.90;;;;;;6247884;22;20700;-65
2022/12/09 16:43:56;;;;;;;48.70;35.90;;;3.60;99.90;;;;;;6246612;23;20395;-65
2022/12/09 16:46:38;;;;;;;40.47;32.27;;;3.50;99.90;;;;;;6246470;23;20860;-65
2022/12/09 16:49:05;;;;;;;40.77;33.03;;;3.50;99.90;;;;;;6246484;23;20856;-65
2022/12/09 16:51:32;;;;;;;41.07;31.83;;;3.60;99.90;;;;;;6246711;22;20431;-65
2022/12/09 16:54:00;;;;;;;41.63;33.67;;;3.60;99.90;;;;;;6246723;23;20771;-64
2022/12/09 16:56:28;;;;;;;43.57;34.73;;;3.60;99.90;;;;;;6246506;23;20418;-64
2022/12/09 16:58:58;;;;;;;44.93;35.73;;;3.60;99.90;;;;;;6246920;23;20418;-64
2022/12/09 17:01:27;;;;;;;44.20;34.37;;;3.60;99.90;;;;;;6248812;22;20439;-65
2022/12/09 17:03:58;;;;;;;45.13;34.93;;;3.60;99.90;;;;;;6250622;23;20437;-65
2022/12/09 17:06:24;;;;;;;45.70;36.47;;;3.60;99.90;;;;;;6249345;23;20402;-65
2022/12/09 17:08:51;;;;;;;43.07;34.70;;;3.50;99.90;;;;;;6248828;23;20411;-65
2022/12/09 17:11:20;;;;;;;44.40;35.30;;;3.60;99.90;;;;;;6248771;22;20443;-70
2022/12/09 17:13:47;;;;;;;41.97;35.63;;;3.60;99.90;;;;;;6249078;23;20453;-66
2022/12/09 17:16:16;;;;;;;38.57;32.00;;;3.60;99.90;;;;;;6248557;23;20474;-64
2022/12/09 17:18:42;;;;;;;42.03;35.50;;;3.60;99.90;;;;;;6248447;23;20418;-63
2022/12/09 17:21:11;;;;;;;46.77;36.40;;;3.70;99.90;;;;;;6249269;22;20430;-64
2022/12/09 17:23:38;;;;;;;44.87;36.40;;;3.80;99.90;;;;;;6248437;23;20493;-64
2022/12/09 17:26:07;;;;;;;47.70;38.07;;;3.80;99.90;;;;;;6248561;23;20465;-64
2022/12/09 17:28:35;;;;;;;43.13;34.90;;;3.70;99.90;;;;;;6248402;23;20410;-64
2022/12/09 17:31:01;;;;;;;47.57;37.13;;;3.70;99.90;;;;;;6248393;22;20438;-64
2022/12/09 17:33:30;;;;;;;42.20;35.03;;;3.70;99.90;;;;;;6248705;23;20414;-64
2022/12/09 17:35:56;;;;;;;47.20;37.63;;;3.80;99.90;;;;;;6248352;23;20468;-64
2022/12/09 17:38:23;;;;;;;49.60;37.03;;;3.80;99.90;;;;;;6247996;23;20961;-64
2022/12/09 17:40:50;;;;;;;45.60;36.20;;;3.80;99.90;;;;;;6248633;22;20485;-64
2022/12/09 17:43:16;;;;;;;43.77;36.10;;;3.70;99.90;;;;;;6248158;23;20906;-64
2022/12/09 17:45:43;;;;;;;47.47;35.57;;;3.70;99.90;;;;;;6248440;23;20410;-63
2022/12/09 17:48:10;;;;;;;44.93;36.00;;;3.70;99.90;;;;;;6248265;23;20417;-70
2022/12/09 17:50:38;;;;;;;44.77;36.70;;;3.70;99.90;;;;;;6248483;22;20434;-64
2022/12/09 17:53:05;;;;;;;47.17;36.23;;;3.70;99.90;;;;;;6247976;23;20896;-64
2022/12/09 17:55:32;;;;;;;47.50;38.53;;;3.70;99.90;;;;;;6248394;23;20445;-64
2022/12/09 17:57:59;;;;;;;47.10;39.00;;;3.70;99.90;;;;;;6247671;23;20908;-65
2022/12/09 18:00:26;;;;;;;47.03;37.13;;;3.60;99.90;;;;;;6247654;22;20450;-71
2022/12/09 18:02:52;;;;;;;44.00;35.33;;;3.60;99.90;;;;;;6248592;23;20427;-64
2022/12/09 18:05:19;;;;;;;39.93;33.83;;;3.60;99.90;;;;;;6247783;23;20781;-64